sensor_id;sensor_type;location;lat;lon;timestamp;P1;durP1;ratioP1;P2;durP2;ratioP2
13309;SDS011;6723;48.256;16.402;2023-08-21T00:00:08;12.37;;;10.50;;
13309;SDS011;6723;48.256;16.402;2023-08-21T00:02:35;11.60;;;10.53;;
13309;SDS011;6723;48.256;16.402;2023-08-21T00:05:01;12.40;;;11.23;;
13309;SDS011;6723;48.256;16.402;2023-08-21T00:07:26;11.53;;;10.53;;
13309;SDS011;6723;48.256;16.402;2023-08-21T00:09:52;12.10;;;10.63;;
13309;SDS011;6723;48.256;16.402;2023-08-21T00:12:18;11.83;;;10.73;;
13309;SDS011;6723;48.256;16.402;2023-08-21T00:14:44;15.93;;;11.80;;
13309;SDS011;6723;48.256;16.402;2023-08-21T00:17:09;12.30;;;11.07;;
13309;SDS011;6723;48.256;16.402;2023-08-21T00:19:35;12.20;;;10.83;;
13309;SDS011;6723;48.256;16.402;2023-08-21T00:22:01;12.13;;;11.13;;
13309;SDS011;6723;48.256;16.402;2023-08-21T00:24:27;13.67;;;11.87;;
13309;SDS011;6723;48.256;16.402;2023-08-21T00:26:52;12.77;;;11.40;;
13309;SDS011;6723;48.256;16.402;2023-08-21T00:29:18;12.70;;;11.50;;
13309;SDS011;6723;48.256;16.402;2023-08-21T00:31:44;13.27;;;11.97;;
13309;SDS011;6723;48.256;16.402;2023-08-21T00:34:10;12.33;;;11.20;;
13309;SDS011;6723;48.256;16.402;2023-08-21T00:36:35;13.17;;;11.60;;
13309;SDS011;6723;48.256;16.402;2023-08-21T00:39:01;12.33;;;11.13;;
13309;SDS011;6723;48.256;16.402;2023-08-21T00:41:27;12.67;;;11.53;;
13309;SDS011;6723;48.256;16.402;2023-08-21T00:43:53;12.90;;;11.73;;
13309;SDS011;6723;48.256;16.402;2023-08-21T00:46:18;12.53;;;11.33;;
13309;SDS011;6723;48.256;16.402;2023-08-21T00:48:45;14.10;;;11.83;;
13309;SDS011;6723;48.256;16.402;2023-08-21T00:51:11;12.30;;;11.10;;
13309;SDS011;6723;48.256;16.402;2023-08-21T00:53:39;13.37;;;11.83;;
13309;SDS011;6723;48.256;16.402;2023-08-21T00:56:05;13.03;;;11.73;;
13309;SDS011;6723;48.256;16.402;2023-08-21T00:58:31;13.27;;;11.73;;
13309;SDS011;6723;48.256;16.402;2023-08-21T01:00:57;12.80;;;11.70;;
13309;SDS011;6723;48.256;16.402;2023-08-21T01:03:23;12.40;;;11.30;;
13309;SDS011;6723;48.256;16.402;2023-08-21T01:05:50;12.63;;;11.33;;
13309;SDS011;6723;48.256;16.402;2023-08-21T01:13:54;12.57;;;11.37;;
13309;SDS011;6723;48.256;16.402;2023-08-21T01:16:21;13.47;;;12.07;;
13309;SDS011;6723;48.256;16.402;2023-08-21T01:18:47;13.70;;;11.83;;
13309;SDS011;6723;48.256;16.402;2023-08-21T01:21:15;13.30;;;12.10;;
13309;SDS011;6723;48.256;16.402;2023-08-21T01:23:41;12.93;;;11.70;;
13309;SDS011;6723;48.256;16.402;2023-08-21T01:26:08;13.37;;;12.00;;
13309;SDS011;6723;48.256;16.402;2023-08-21T01:28:34;13.10;;;11.90;;
13309;SDS011;6723;48.256;16.402;2023-08-21T01:34:09;15.00;;;12.83;;
13309;SDS011;6723;48.256;16.402;2023-08-21T01:36:39;13.43;;;12.23;;
13309;SDS011;6723;48.256;16.402;2023-08-21T01:39:05;13.90;;;12.33;;
13309;SDS011;6723;48.256;16.402;2023-08-21T01:41:32;13.07;;;11.87;;
13309;SDS011;6723;48.256;16.402;2023-08-21T01:43:58;14.97;;;12.33;;
13309;SDS011;6723;48.256;16.402;2023-08-21T01:46:23;13.47;;;12.17;;
13309;SDS011;6723;48.256;16.402;2023-08-21T01:48:49;13.27;;;12.03;;
13309;SDS011;6723;48.256;16.402;2023-08-21T01:51:15;13.93;;;12.57;;
13309;SDS011;6723;48.256;16.402;2023-08-21T01:53:41;13.60;;;12.40;;
13309;SDS011;6723;48.256;16.402;2023-08-21T01:56:07;13.70;;;12.47;;
13309;SDS011;6723;48.256;16.402;2023-08-21T01:58:33;14.50;;;12.57;;
13309;SDS011;6723;48.256;16.402;2023-08-21T02:00:59;13.73;;;12.43;;
13309;SDS011;6723;48.256;16.402;2023-08-21T02:03:25;13.17;;;11.97;;
13309;SDS011;6723;48.256;16.402;2023-08-21T02:05:54;13.73;;;12.50;;
13309;SDS011;6723;48.256;16.402;2023-08-21T02:08:25;13.93;;;12.53;;
13309;SDS011;6723;48.256;16.402;2023-08-21T02:10:55;13.97;;;12.63;;
13309;SDS011;6723;48.256;16.402;2023-08-21T02:13:21;13.17;;;11.97;;
13309;SDS011;6723;48.256;16.402;2023-08-21T02:15:47;13.73;;;12.37;;
13309;SDS011;6723;48.256;16.402;2023-08-21T02:18:13;13.80;;;12.47;;
13309;SDS011;6723;48.256;16.402;2023-08-21T02:20:39;13.40;;;12.20;;
13309;SDS011;6723;48.256;16.402;2023-08-21T02:23:04;15.30;;;13.90;;
13309;SDS011;6723;48.256;16.402;2023-08-21T02:25:31;14.40;;;13.00;;
13309;SDS011;6723;48.256;16.402;2023-08-21T02:27:57;14.50;;;13.03;;
13309;SDS011;6723;48.256;16.402;2023-08-21T02:30:23;14.73;;;13.33;;
13309;SDS011;6723;48.256;16.402;2023-08-21T02:32:53;14.80;;;13.33;;
13309;SDS011;6723;48.256;16.402;2023-08-21T02:35:20;14.37;;;13.00;;
13309;SDS011;6723;48.256;16.402;2023-08-21T02:37:46;14.87;;;12.83;;
13309;SDS011;6723;48.256;16.402;2023-08-21T02:40:12;14.73;;;13.13;;
13309;SDS011;6723;48.256;16.402;2023-08-21T02:42:38;14.57;;;13.07;;
13309;SDS011;6723;48.256;16.402;2023-08-21T02:45:04;14.17;;;12.87;;
13309;SDS011;6723;48.256;16.402;2023-08-21T02:47:35;14.63;;;13.13;;
13309;SDS011;6723;48.256;16.402;2023-08-21T02:50:03;14.47;;;13.10;;
13309;SDS011;6723;48.256;16.402;2023-08-21T02:52:30;14.20;;;12.70;;
13309;SDS011;6723;48.256;16.402;2023-08-21T02:54:57;14.40;;;12.90;;
13309;SDS011;6723;48.256;16.402;2023-08-21T02:57:24;14.77;;;13.27;;
13309;SDS011;6723;48.256;16.402;2023-08-21T02:59:51;15.03;;;13.63;;
13309;SDS011;6723;48.256;16.402;2023-08-21T03:02:17;15.53;;;13.87;;
13309;SDS011;6723;48.256;16.402;2023-08-21T03:04:43;14.97;;;13.23;;
13309;SDS011;6723;48.256;16.402;2023-08-21T03:07:10;15.93;;;13.90;;
13309;SDS011;6723;48.256;16.402;2023-08-21T03:09:36;15.57;;;13.87;;
13309;SDS011;6723;48.256;16.402;2023-08-21T03:12:02;15.73;;;14.13;;
13309;SDS011;6723;48.256;16.402;2023-08-21T03:14:29;16.50;;;14.27;;
13309;SDS011;6723;48.256;16.402;2023-08-21T03:16:54;18.13;;;14.27;;
13309;SDS011;6723;48.256;16.402;2023-08-21T03:19:20;16.70;;;14.33;;
13309;SDS011;6723;48.256;16.402;2023-08-21T03:21:46;15.73;;;14.00;;
13309;SDS011;6723;48.256;16.402;2023-08-21T03:24:12;16.10;;;14.20;;
13309;SDS011;6723;48.256;16.402;2023-08-21T03:26:38;16.77;;;14.43;;
13309;SDS011;6723;48.256;16.402;2023-08-21T03:29:06;15.93;;;14.43;;
13309;SDS011;6723;48.256;16.402;2023-08-21T03:31:32;16.17;;;14.57;;
13309;SDS011;6723;48.256;16.402;2023-08-21T03:33:58;16.43;;;14.90;;
13309;SDS011;6723;48.256;16.402;2023-08-21T03:36:24;16.60;;;14.50;;
13309;SDS011;6723;48.256;16.402;2023-08-21T03:38:56;17.80;;;15.20;;
13309;SDS011;6723;48.256;16.402;2023-08-21T03:41:26;16.20;;;14.60;;
13309;SDS011;6723;48.256;16.402;2023-08-21T03:43:53;15.80;;;14.20;;
13309;SDS011;6723;48.256;16.402;2023-08-21T03:46:19;17.17;;;14.33;;
13309;SDS011;6723;48.256;16.402;2023-08-21T03:48:45;16.53;;;14.63;;
13309;SDS011;6723;48.256;16.402;2023-08-21T03:51:11;15.60;;;14.13;;
13309;SDS011;6723;48.256;16.402;2023-08-21T03:53:40;17.80;;;15.10;;
13309;SDS011;6723;48.256;16.402;2023-08-21T03:56:05;15.00;;;13.60;;
13309;SDS011;6723;48.256;16.402;2023-08-21T03:58:31;15.77;;;14.27;;
13309;SDS011;6723;48.256;16.402;2023-08-21T04:00:57;16.43;;;14.23;;
13309;SDS011;6723;48.256;16.402;2023-08-21T04:03:23;16.23;;;14.40;;
13309;SDS011;6723;48.256;16.402;2023-08-21T04:05:49;15.60;;;14.10;;
13309;SDS011;6723;48.256;16.402;2023-08-21T04:08:15;16.53;;;14.93;;
13309;SDS011;6723;48.256;16.402;2023-08-21T04:10:41;16.47;;;14.87;;
13309;SDS011;6723;48.256;16.402;2023-08-21T04:13:07;16.50;;;14.87;;
13309;SDS011;6723;48.256;16.402;2023-08-21T04:15:33;15.50;;;13.90;;
13309;SDS011;6723;48.256;16.402;2023-08-21T04:18:03;17.80;;;14.07;;
13309;SDS011;6723;48.256;16.402;2023-08-21T04:20:29;15.80;;;14.23;;
13309;SDS011;6723;48.256;16.402;2023-08-21T04:22:56;15.80;;;14.20;;
13309;SDS011;6723;48.256;16.402;2023-08-21T04:25:21;15.67;;;13.70;;
13309;SDS011;6723;48.256;16.402;2023-08-21T04:27:47;17.33;;;13.60;;
13309;SDS011;6723;48.256;16.402;2023-08-21T04:30:13;16.10;;;13.87;;
13309;SDS011;6723;48.256;16.402;2023-08-21T04:32:39;15.77;;;13.53;;
13309;SDS011;6723;48.256;16.402;2023-08-21T04:35:04;16.17;;;14.67;;
13309;SDS011;6723;48.256;16.402;2023-08-21T04:37:33;16.93;;;15.33;;
13309;SDS011;6723;48.256;16.402;2023-08-21T04:39:59;16.23;;;14.10;;
13309;SDS011;6723;48.256;16.402;2023-08-21T04:42:24;15.07;;;13.57;;
13309;SDS011;6723;48.256;16.402;2023-08-21T04:44:50;15.63;;;14.03;;
13309;SDS011;6723;48.256;16.402;2023-08-21T04:47:23;14.07;;;12.67;;
13309;SDS011;6723;48.256;16.402;2023-08-21T04:49:53;14.10;;;12.80;;
13309;SDS011;6723;48.256;16.402;2023-08-21T04:52:20;14.27;;;12.80;;
13309;SDS011;6723;48.256;16.402;2023-08-21T04:54:47;15.13;;;13.20;;
13309;SDS011;6723;48.256;16.402;2023-08-21T04:57:14;14.50;;;13.10;;
13309;SDS011;6723;48.256;16.402;2023-08-21T04:59:40;13.87;;;12.27;;
13309;SDS011;6723;48.256;16.402;2023-08-21T05:02:07;14.10;;;12.60;;
13309;SDS011;6723;48.256;16.402;2023-08-21T05:04:36;14.03;;;12.67;;
13309;SDS011;6723;48.256;16.402;2023-08-21T05:07:02;14.07;;;12.50;;
13309;SDS011;6723;48.256;16.402;2023-08-21T05:09:29;14.77;;;13.37;;
13309;SDS011;6723;48.256;16.402;2023-08-21T05:11:56;14.20;;;12.80;;
13309;SDS011;6723;48.256;16.402;2023-08-21T05:14:22;14.63;;;13.13;;
13309;SDS011;6723;48.256;16.402;2023-08-21T05:16:51;14.40;;;13.00;;
13309;SDS011;6723;48.256;16.402;2023-08-21T05:19:17;13.97;;;12.53;;
13309;SDS011;6723;48.256;16.402;2023-08-21T05:21:43;13.70;;;12.37;;
13309;SDS011;6723;48.256;16.402;2023-08-21T05:24:09;13.77;;;12.47;;
13309;SDS011;6723;48.256;16.402;2023-08-21T05:26:35;16.37;;;12.37;;
13309;SDS011;6723;48.256;16.402;2023-08-21T05:29:02;13.97;;;12.57;;
13309;SDS011;6723;48.256;16.402;2023-08-21T05:31:28;14.13;;;12.53;;
13309;SDS011;6723;48.256;16.402;2023-08-21T05:33:54;12.97;;;11.80;;
13309;SDS011;6723;48.256;16.402;2023-08-21T05:36:20;13.93;;;12.53;;
13309;SDS011;6723;48.256;16.402;2023-08-21T05:38:46;12.37;;;11.13;;
13309;SDS011;6723;48.256;16.402;2023-08-21T05:41:13;13.67;;;11.80;;
13309;SDS011;6723;48.256;16.402;2023-08-21T05:43:42;15.90;;;11.97;;
13309;SDS011;6723;48.256;16.402;2023-08-21T05:46:12;12.97;;;11.60;;
13309;SDS011;6723;48.256;16.402;2023-08-21T05:48:38;13.17;;;11.70;;
13309;SDS011;6723;48.256;16.402;2023-08-21T05:51:04;12.83;;;11.63;;
13309;SDS011;6723;48.256;16.402;2023-08-21T05:53:30;12.43;;;11.33;;
13309;SDS011;6723;48.256;16.402;2023-08-21T05:55:56;14.33;;;12.17;;
13309;SDS011;6723;48.256;16.402;2023-08-21T05:58:22;13.00;;;11.63;;
13309;SDS011;6723;48.256;16.402;2023-08-21T06:00:48;15.73;;;11.70;;
13309;SDS011;6723;48.256;16.402;2023-08-21T06:03:14;13.97;;;12.10;;
13309;SDS011;6723;48.256;16.402;2023-08-21T06:05:40;13.27;;;11.87;;
13309;SDS011;6723;48.256;16.402;2023-08-21T06:08:05;13.87;;;12.47;;
13309;SDS011;6723;48.256;16.402;2023-08-21T06:10:33;13.50;;;12.10;;
13309;SDS011;6723;48.256;16.402;2023-08-21T06:12:59;13.27;;;11.87;;
13309;SDS011;6723;48.256;16.402;2023-08-21T06:15:25;13.17;;;11.77;;
13309;SDS011;6723;48.256;16.402;2023-08-21T06:17:51;13.20;;;11.60;;
13309;SDS011;6723;48.256;16.402;2023-08-21T06:20:16;12.33;;;11.07;;
13309;SDS011;6723;48.256;16.402;2023-08-21T06:22:44;12.73;;;11.47;;
13309;SDS011;6723;48.256;16.402;2023-08-21T06:25:10;12.27;;;11.07;;
13309;SDS011;6723;48.256;16.402;2023-08-21T06:27:37;14.10;;;11.90;;
13309;SDS011;6723;48.256;16.402;2023-08-21T06:30:02;14.60;;;12.27;;
13309;SDS011;6723;48.256;16.402;2023-08-21T06:32:28;13.07;;;11.87;;
13309;SDS011;6723;48.256;16.402;2023-08-21T06:34:54;12.30;;;11.10;;
13309;SDS011;6723;48.256;16.402;2023-08-21T06:37:20;13.20;;;11.63;;
13309;SDS011;6723;48.256;16.402;2023-08-21T06:39:46;12.73;;;11.30;;
13309;SDS011;6723;48.256;16.402;2023-08-21T06:42:11;13.87;;;12.30;;
13309;SDS011;6723;48.256;16.402;2023-08-21T06:44:37;13.30;;;11.03;;
13309;SDS011;6723;48.256;16.402;2023-08-21T06:47:03;15.43;;;11.90;;
13309;SDS011;6723;48.256;16.402;2023-08-21T06:49:29;14.53;;;11.67;;
13309;SDS011;6723;48.256;16.402;2023-08-21T06:51:55;12.67;;;11.50;;
13309;SDS011;6723;48.256;16.402;2023-08-21T06:54:20;12.73;;;11.27;;
13309;SDS011;6723;48.256;16.402;2023-08-21T06:56:46;12.90;;;11.53;;
13309;SDS011;6723;48.256;16.402;2023-08-21T06:59:12;14.70;;;12.13;;
13309;SDS011;6723;48.256;16.402;2023-08-21T07:01:38;12.43;;;11.20;;
13309;SDS011;6723;48.256;16.402;2023-08-21T07:04:03;16.07;;;11.73;;
13309;SDS011;6723;48.256;16.402;2023-08-21T07:06:29;12.93;;;11.53;;
13309;SDS011;6723;48.256;16.402;2023-08-21T07:08:56;12.10;;;10.90;;
13309;SDS011;6723;48.256;16.402;2023-08-21T07:11:22;13.57;;;12.23;;
13309;SDS011;6723;48.256;16.402;2023-08-21T07:13:48;13.05;;;11.75;;
13309;SDS011;6723;48.256;16.402;2023-08-21T07:16:14;12.80;;;11.18;;
13309;SDS011;6723;48.256;16.402;2023-08-21T07:18:40;12.38;;;9.60;;
13309;SDS011;6723;48.256;16.402;2023-08-21T07:21:06;10.82;;;9.23;;
13309;SDS011;6723;48.256;16.402;2023-08-21T07:23:32;8.68;;;7.70;;
13309;SDS011;6723;48.256;16.402;2023-08-21T07:25:59;8.63;;;7.65;;
13309;SDS011;6723;48.256;16.402;2023-08-21T07:28:26;9.52;;;7.10;;
13309;SDS011;6723;48.256;16.402;2023-08-21T07:30:55;7.22;;;6.20;;
13309;SDS011;6723;48.256;16.402;2023-08-21T07:33:22;6.47;;;5.88;;
13309;SDS011;6723;48.256;16.402;2023-08-21T07:35:56;7.07;;;6.28;;
13309;SDS011;6723;48.256;16.402;2023-08-21T07:38:26;6.32;;;5.40;;
13309;SDS011;6723;48.256;16.402;2023-08-21T07:40:52;5.70;;;5.18;;
13309;SDS011;6723;48.256;16.402;2023-08-21T07:43:31;8.05;;;5.10;;
13309;SDS011;6723;48.256;16.402;2023-08-21T07:45:56;6.13;;;5.53;;
13309;SDS011;6723;48.256;16.402;2023-08-21T07:48:22;5.63;;;4.63;;
13309;SDS011;6723;48.256;16.402;2023-08-21T07:50:51;6.78;;;4.70;;
13309;SDS011;6723;48.256;16.402;2023-08-21T07:53:18;5.47;;;4.60;;
13309;SDS011;6723;48.256;16.402;2023-08-21T07:55:44;9.63;;;4.43;;
13309;SDS011;6723;48.256;16.402;2023-08-21T07:58:11;7.70;;;4.13;;
13309;SDS011;6723;48.256;16.402;2023-08-21T08:00:37;6.00;;;4.00;;
13309;SDS011;6723;48.256;16.402;2023-08-21T08:03:04;4.68;;;4.18;;
13309;SDS011;6723;48.256;16.402;2023-08-21T08:05:31;5.20;;;3.75;;
13309;SDS011;6723;48.256;16.402;2023-08-21T08:07:58;4.57;;;4.15;;
13309;SDS011;6723;48.256;16.402;2023-08-21T08:10:24;4.25;;;3.85;;
13309;SDS011;6723;48.256;16.402;2023-08-21T08:12:50;4.43;;;3.92;;
13309;SDS011;6723;48.256;16.402;2023-08-21T08:15:16;5.07;;;4.05;;
13309;SDS011;6723;48.256;16.402;2023-08-21T08:17:43;5.55;;;4.00;;
13309;SDS011;6723;48.256;16.402;2023-08-21T08:20:11;4.38;;;3.97;;
13309;SDS011;6723;48.256;16.402;2023-08-21T08:22:38;6.10;;;3.80;;
13309;SDS011;6723;48.256;16.402;2023-08-21T08:25:05;4.90;;;3.95;;
13309;SDS011;6723;48.256;16.402;2023-08-21T08:27:31;3.90;;;3.50;;
13309;SDS011;6723;48.256;16.402;2023-08-21T08:29:57;6.03;;;3.50;;
13309;SDS011;6723;48.256;16.402;2023-08-21T08:32:24;4.00;;;3.55;;
13309;SDS011;6723;48.256;16.402;2023-08-21T08:34:51;5.32;;;3.42;;
13309;SDS011;6723;48.256;16.402;2023-08-21T08:37:18;4.18;;;2.95;;
13309;SDS011;6723;48.256;16.402;2023-08-21T08:39:48;4.03;;;3.60;;
13309;SDS011;6723;48.256;16.402;2023-08-21T08:42:15;4.25;;;3.50;;
13309;SDS011;6723;48.256;16.402;2023-08-21T08:44:42;3.83;;;3.20;;
13309;SDS011;6723;48.256;16.402;2023-08-21T08:47:10;4.75;;;3.38;;
13309;SDS011;6723;48.256;16.402;2023-08-21T08:49:39;3.78;;;3.10;;
13309;SDS011;6723;48.256;16.402;2023-08-21T08:52:05;3.72;;;3.30;;
13309;SDS011;6723;48.256;16.402;2023-08-21T08:54:32;5.03;;;3.20;;
13309;SDS011;6723;48.256;16.402;2023-08-21T08:57:00;4.32;;;3.22;;
13309;SDS011;6723;48.256;16.402;2023-08-21T08:59:29;4.57;;;3.08;;
13309;SDS011;6723;48.256;16.402;2023-08-21T09:01:56;6.70;;;3.65;;
13309;SDS011;6723;48.256;16.402;2023-08-21T09:04:22;4.07;;;3.72;;
13309;SDS011;6723;48.256;16.402;2023-08-21T09:06:48;5.03;;;4.00;;
13309;SDS011;6723;48.256;16.402;2023-08-21T09:09:14;5.53;;;4.22;;
13309;SDS011;6723;48.256;16.402;2023-08-21T09:11:43;5.15;;;4.00;;
13309;SDS011;6723;48.256;16.402;2023-08-21T09:14:11;4.97;;;4.28;;
13309;SDS011;6723;48.256;16.402;2023-08-21T09:16:37;7.68;;;4.22;;
13309;SDS011;6723;48.256;16.402;2023-08-21T09:19:02;4.57;;;4.10;;
13309;SDS011;6723;48.256;16.402;2023-08-21T09:21:28;4.95;;;4.47;;
13309;SDS011;6723;48.256;16.402;2023-08-21T09:23:58;5.53;;;5.03;;
13309;SDS011;6723;48.256;16.402;2023-08-21T09:26:26;7.88;;;4.90;;
13309;SDS011;6723;48.256;16.402;2023-08-21T09:28:55;6.05;;;5.10;;
13309;SDS011;6723;48.256;16.402;2023-08-21T09:31:33;6.85;;;6.07;;
13309;SDS011;6723;48.256;16.402;2023-08-21T09:34:02;7.00;;;5.80;;
13309;SDS011;6723;48.256;16.402;2023-08-21T09:36:30;6.78;;;6.00;;
13309;SDS011;6723;48.256;16.402;2023-08-21T09:38:56;6.82;;;5.93;;
13309;SDS011;6723;48.256;16.402;2023-08-21T09:41:23;6.82;;;6.30;;
13309;SDS011;6723;48.256;16.402;2023-08-21T09:43:50;7.43;;;6.57;;
13309;SDS011;6723;48.256;16.402;2023-08-21T09:46:26;8.88;;;6.93;;
13309;SDS011;6723;48.256;16.402;2023-08-21T09:48:53;7.53;;;6.72;;
13309;SDS011;6723;48.256;16.402;2023-08-21T09:51:20;7.40;;;6.70;;
13309;SDS011;6723;48.256;16.402;2023-08-21T09:53:49;6.70;;;6.10;;
13309;SDS011;6723;48.256;16.402;2023-08-21T09:56:17;6.40;;;5.88;;
13309;SDS011;6723;48.256;16.402;2023-08-21T09:58:46;6.90;;;6.18;;
13309;SDS011;6723;48.256;16.402;2023-08-21T10:01:14;7.10;;;6.40;;
13309;SDS011;6723;48.256;16.402;2023-08-21T10:03:42;10.15;;;6.78;;
13309;SDS011;6723;48.256;16.402;2023-08-21T10:06:13;7.80;;;7.00;;
13309;SDS011;6723;48.256;16.402;2023-08-21T10:08:43;8.02;;;7.25;;
13309;SDS011;6723;48.256;16.402;2023-08-21T10:11:11;8.00;;;7.20;;
13309;SDS011;6723;48.256;16.402;2023-08-21T10:13:37;9.75;;;6.47;;
13309;SDS011;6723;48.256;16.402;2023-08-21T10:16:05;7.50;;;6.85;;
13309;SDS011;6723;48.256;16.402;2023-08-21T10:18:33;12.27;;;6.90;;
13309;SDS011;6723;48.256;16.402;2023-08-21T10:21:14;7.32;;;6.75;;
13309;SDS011;6723;48.256;16.402;2023-08-21T10:23:51;8.18;;;7.38;;
13309;SDS011;6723;48.256;16.402;2023-08-21T10:26:20;9.77;;;7.00;;
13309;SDS011;6723;48.256;16.402;2023-08-21T10:28:51;10.18;;;7.75;;
13309;SDS011;6723;48.256;16.402;2023-08-21T10:33:57;8.23;;;6.88;;
13309;SDS011;6723;48.256;16.402;2023-08-21T10:39:17;7.97;;;7.10;;
13309;SDS011;6723;48.256;16.402;2023-08-21T10:41:54;7.70;;;6.65;;
13309;SDS011;6723;48.256;16.402;2023-08-21T10:44:52;8.02;;;7.20;;
13309;SDS011;6723;48.256;16.402;2023-08-21T10:49:54;7.47;;;6.85;;
13309;SDS011;6723;48.256;16.402;2023-08-21T10:52:24;7.72;;;7.03;;
13309;SDS011;6723;48.256;16.402;2023-08-21T10:54:54;7.90;;;7.07;;
13309;SDS011;6723;48.256;16.402;2023-08-21T10:57:23;8.95;;;7.03;;
13309;SDS011;6723;48.256;16.402;2023-08-21T10:59:56;9.70;;;6.78;;
13309;SDS011;6723;48.256;16.402;2023-08-21T11:02:24;11.02;;;7.60;;
13309;SDS011;6723;48.256;16.402;2023-08-21T11:04:51;8.10;;;7.05;;
13309;SDS011;6723;48.256;16.402;2023-08-21T11:07:18;10.30;;;7.53;;
13309;SDS011;6723;48.256;16.402;2023-08-21T11:09:44;12.30;;;8.88;;
13309;SDS011;6723;48.256;16.402;2023-08-21T11:12:14;12.18;;;8.27;;
13309;SDS011;6723;48.256;16.402;2023-08-21T11:14:42;8.13;;;7.35;;
13309;SDS011;6723;48.256;16.402;2023-08-21T11:17:08;8.30;;;7.53;;
13309;SDS011;6723;48.256;16.402;2023-08-21T11:19:35;10.07;;;7.50;;
13309;SDS011;6723;48.256;16.402;2023-08-21T11:22:02;9.43;;;6.30;;
13309;SDS011;6723;48.256;16.402;2023-08-21T11:27:13;6.85;;;6.20;;
13309;SDS011;6723;48.256;16.402;2023-08-21T11:32:08;8.15;;;5.57;;
13309;SDS011;6723;48.256;16.402;2023-08-21T11:34:35;7.18;;;6.13;;
13309;SDS011;6723;48.256;16.402;2023-08-21T11:37:01;7.43;;;6.72;;
13309;SDS011;6723;48.256;16.402;2023-08-21T11:39:38;8.52;;;6.60;;
13309;SDS011;6723;48.256;16.402;2023-08-21T11:42:11;8.07;;;6.25;;
13309;SDS011;6723;48.256;16.402;2023-08-21T11:44:45;7.78;;;6.50;;
13309;SDS011;6723;48.256;16.402;2023-08-21T11:47:13;7.95;;;6.30;;
13309;SDS011;6723;48.256;16.402;2023-08-21T11:49:40;7.57;;;6.47;;
13309;SDS011;6723;48.256;16.402;2023-08-21T11:52:07;9.43;;;6.53;;
13309;SDS011;6723;48.256;16.402;2023-08-21T11:54:34;7.15;;;6.53;;
13309;SDS011;6723;48.256;16.402;2023-08-21T11:57:08;6.82;;;6.15;;
13309;SDS011;6723;48.256;16.402;2023-08-21T11:59:37;11.27;;;5.97;;
13309;SDS011;6723;48.256;16.402;2023-08-21T12:02:24;6.75;;;5.78;;
13309;SDS011;6723;48.256;16.402;2023-08-21T12:04:53;8.43;;;5.82;;
13309;SDS011;6723;48.256;16.402;2023-08-21T12:07:30;6.10;;;5.65;;
13309;SDS011;6723;48.256;16.402;2023-08-21T12:09:56;9.35;;;5.97;;
13309;SDS011;6723;48.256;16.402;2023-08-21T12:12:22;6.38;;;5.78;;
13309;SDS011;6723;48.256;16.402;2023-08-21T12:14:49;7.35;;;5.55;;
13309;SDS011;6723;48.256;16.402;2023-08-21T12:17:15;11.90;;;5.88;;
13309;SDS011;6723;48.256;16.402;2023-08-21T12:19:41;6.00;;;4.80;;
13309;SDS011;6723;48.256;16.402;2023-08-21T12:22:08;5.28;;;4.78;;
13309;SDS011;6723;48.256;16.402;2023-08-21T12:24:34;6.22;;;4.72;;
13309;SDS011;6723;48.256;16.402;2023-08-21T12:27:02;8.65;;;4.78;;
13309;SDS011;6723;48.256;16.402;2023-08-21T12:29:28;6.15;;;4.82;;
13309;SDS011;6723;48.256;16.402;2023-08-21T12:31:54;6.82;;;4.70;;
13309;SDS011;6723;48.256;16.402;2023-08-21T12:34:21;6.90;;;5.00;;
13309;SDS011;6723;48.256;16.402;2023-08-21T12:36:47;6.97;;;4.57;;
13309;SDS011;6723;48.256;16.402;2023-08-21T12:39:14;5.63;;;4.32;;
13309;SDS011;6723;48.256;16.402;2023-08-21T12:41:41;6.80;;;4.65;;
13309;SDS011;6723;48.256;16.402;2023-08-21T12:44:08;6.40;;;4.25;;
13309;SDS011;6723;48.256;16.402;2023-08-21T12:46:34;4.85;;;4.30;;
13309;SDS011;6723;48.256;16.402;2023-08-21T12:49:01;4.00;;;3.67;;
13309;SDS011;6723;48.256;16.402;2023-08-21T12:51:27;3.95;;;3.47;;
13309;SDS011;6723;48.256;16.402;2023-08-21T12:53:54;3.92;;;3.60;;
13309;SDS011;6723;48.256;16.402;2023-08-21T12:56:20;6.72;;;3.72;;
13309;SDS011;6723;48.256;16.402;2023-08-21T12:58:47;6.15;;;4.00;;
13309;SDS011;6723;48.256;16.402;2023-08-21T13:01:13;7.00;;;3.67;;
13309;SDS011;6723;48.256;16.402;2023-08-21T13:03:46;3.72;;;3.42;;
13309;SDS011;6723;48.256;16.402;2023-08-21T13:06:16;5.43;;;3.67;;
13309;SDS011;6723;48.256;16.402;2023-08-21T13:08:41;4.53;;;3.80;;
13309;SDS011;6723;48.256;16.402;2023-08-21T13:11:10;5.00;;;3.88;;
13309;SDS011;6723;48.256;16.402;2023-08-21T13:13:36;5.95;;;4.32;;
13309;SDS011;6723;48.256;16.402;2023-08-21T13:16:02;4.60;;;4.20;;
13309;SDS011;6723;48.256;16.402;2023-08-21T13:18:28;4.75;;;4.18;;
13309;SDS011;6723;48.256;16.402;2023-08-21T13:20:54;5.18;;;4.68;;
13309;SDS011;6723;48.256;16.402;2023-08-21T13:23:20;5.88;;;4.78;;
13309;SDS011;6723;48.256;16.402;2023-08-21T13:25:46;8.52;;;5.40;;
13309;SDS011;6723;48.256;16.402;2023-08-21T13:28:11;9.43;;;5.10;;
13309;SDS011;6723;48.256;16.402;2023-08-21T13:30:37;6.07;;;4.80;;
13309;SDS011;6723;48.256;16.402;2023-08-21T13:33:03;9.27;;;5.60;;
13309;SDS011;6723;48.256;16.402;2023-08-21T13:35:29;6.65;;;5.07;;
13309;SDS011;6723;48.256;16.402;2023-08-21T13:37:56;5.90;;;5.15;;
13309;SDS011;6723;48.256;16.402;2023-08-21T13:40:21;8.68;;;5.13;;
13309;SDS011;6723;48.256;16.402;2023-08-21T13:42:48;5.43;;;4.93;;
13309;SDS011;6723;48.256;16.402;2023-08-21T13:45:15;7.72;;;5.50;;
13309;SDS011;6723;48.256;16.402;2023-08-21T13:47:43;6.55;;;5.28;;
13309;SDS011;6723;48.256;16.402;2023-08-21T13:50:12;7.65;;;5.20;;
13309;SDS011;6723;48.256;16.402;2023-08-21T13:52:39;7.97;;;5.45;;
13309;SDS011;6723;48.256;16.402;2023-08-21T13:55:06;7.43;;;4.68;;
13309;SDS011;6723;48.256;16.402;2023-08-21T13:57:33;6.07;;;4.40;;
13309;SDS011;6723;48.256;16.402;2023-08-21T13:59:59;8.32;;;4.70;;
13309;SDS011;6723;48.256;16.402;2023-08-21T14:02:25;9.88;;;4.82;;
13309;SDS011;6723;48.256;16.402;2023-08-21T14:04:51;9.88;;;4.85;;
13309;SDS011;6723;48.256;16.402;2023-08-21T14:07:17;8.05;;;5.07;;
13309;SDS011;6723;48.256;16.402;2023-08-21T14:09:43;7.45;;;4.85;;
13309;SDS011;6723;48.256;16.402;2023-08-21T14:12:09;5.10;;;4.40;;
13309;SDS011;6723;48.256;16.402;2023-08-21T14:14:35;4.72;;;4.32;;
13309;SDS011;6723;48.256;16.402;2023-08-21T14:17:02;5.35;;;4.38;;
13309;SDS011;6723;48.256;16.402;2023-08-21T14:19:29;5.95;;;4.55;;
13309;SDS011;6723;48.256;16.402;2023-08-21T14:21:57;6.85;;;4.68;;
13309;SDS011;6723;48.256;16.402;2023-08-21T14:24:24;5.18;;;4.65;;
13309;SDS011;6723;48.256;16.402;2023-08-21T14:26:51;6.05;;;4.65;;
13309;SDS011;6723;48.256;16.402;2023-08-21T14:29:17;5.97;;;5.32;;
13309;SDS011;6723;48.256;16.402;2023-08-21T14:31:43;7.22;;;5.00;;
13309;SDS011;6723;48.256;16.402;2023-08-21T14:34:10;6.47;;;4.57;;
13309;SDS011;6723;48.256;16.402;2023-08-21T14:36:35;5.90;;;4.60;;
13309;SDS011;6723;48.256;16.402;2023-08-21T14:39:01;5.75;;;4.75;;
13309;SDS011;6723;48.256;16.402;2023-08-21T14:41:28;6.00;;;4.55;;
13309;SDS011;6723;48.256;16.402;2023-08-21T14:43:54;5.70;;;4.47;;
13309;SDS011;6723;48.256;16.402;2023-08-21T14:46:20;7.18;;;4.88;;
13309;SDS011;6723;48.256;16.402;2023-08-21T14:48:46;7.10;;;5.10;;
13309;SDS011;6723;48.256;16.402;2023-08-21T14:51:12;5.30;;;4.80;;
13309;SDS011;6723;48.256;16.402;2023-08-21T14:53:38;5.78;;;4.88;;